sensor_id;sensor_type;location;lat;lon;timestamp;P1;durP1;ratioP1;P2;durP2;ratioP2
8100;SDS011;4093;53.470;9.832;2023-03-03T00:00:25;46.17;;;24.40;;
8100;SDS011;4093;53.470;9.832;2023-03-03T00:02:53;40.53;;;22.23;;
8100;SDS011;4093;53.470;9.832;2023-03-03T00:05:22;42.33;;;23.53;;
8100;SDS011;4093;53.470;9.832;2023-03-03T00:07:50;51.53;;;27.13;;
8100;SDS011;4093;53.470;9.832;2023-03-03T00:10:18;43.17;;;23.40;;
8100;SDS011;4093;53.470;9.832;2023-03-03T00:12:46;40.73;;;23.30;;
8100;SDS011;4093;53.470;9.832;2023-03-03T00:15:18;47.00;;;25.37;;
8100;SDS011;4093;53.470;9.832;2023-03-03T00:17:46;44.00;;;23.00;;
8100;SDS011;4093;53.470;9.832;2023-03-03T00:20:21;45.17;;;22.87;;
8100;SDS011;4093;53.470;9.832;2023-03-03T00:23:00;46.67;;;21.87;;
8100;SDS011;4093;53.470;9.832;2023-03-03T00:25:40;44.83;;;23.40;;
8100;SDS011;4093;53.470;9.832;2023-03-03T00:28:18;40.20;;;21.10;;
8100;SDS011;4093;53.470;9.832;2023-03-03T00:30:52;40.00;;;20.80;;
8100;SDS011;4093;53.470;9.832;2023-03-03T00:33:26;37.63;;;18.60;;
8100;SDS011;4093;53.470;9.832;2023-03-03T00:36:20;39.53;;;20.77;;
8100;SDS011;4093;53.470;9.832;2023-03-03T00:38:54;43.03;;;23.73;;
8100;SDS011;4093;53.470;9.832;2023-03-03T00:41:24;42.67;;;21.90;;
8100;SDS011;4093;53.470;9.832;2023-03-03T00:43:53;39.83;;;21.50;;
8100;SDS011;4093;53.470;9.832;2023-03-03T00:46:22;46.60;;;22.90;;
8100;SDS011;4093;53.470;9.832;2023-03-03T00:48:50;52.93;;;23.73;;
8100;SDS011;4093;53.470;9.832;2023-03-03T00:51:20;54.67;;;24.57;;
8100;SDS011;4093;53.470;9.832;2023-03-03T00:53:54;58.27;;;24.77;;
8100;SDS011;4093;53.470;9.832;2023-03-03T00:56:22;51.30;;;24.10;;
8100;SDS011;4093;53.470;9.832;2023-03-03T00:58:50;50.77;;;22.20;;
8100;SDS011;4093;53.470;9.832;2023-03-03T01:01:18;54.00;;;24.47;;
8100;SDS011;4093;53.470;9.832;2023-03-03T01:03:47;59.13;;;25.67;;
8100;SDS011;4093;53.470;9.832;2023-03-03T01:06:15;58.40;;;25.00;;
8100;SDS011;4093;53.470;9.832;2023-03-03T01:08:43;53.93;;;23.80;;
8100;SDS011;4093;53.470;9.832;2023-03-03T01:11:11;43.87;;;20.83;;
8100;SDS011;4093;53.470;9.832;2023-03-03T01:13:42;59.77;;;23.87;;
8100;SDS011;4093;53.470;9.832;2023-03-03T01:16:12;48.30;;;24.10;;
8100;SDS011;4093;53.470;9.832;2023-03-03T01:18:40;42.67;;;20.13;;
8100;SDS011;4093;53.470;9.832;2023-03-03T01:21:10;44.07;;;21.10;;
8100;SDS011;4093;53.470;9.832;2023-03-03T01:23:38;50.67;;;23.27;;
8100;SDS011;4093;53.470;9.832;2023-03-03T01:26:06;41.03;;;21.10;;
8100;SDS011;4093;53.470;9.832;2023-03-03T01:28:34;36.73;;;20.00;;
8100;SDS011;4093;53.470;9.832;2023-03-03T01:31:02;34.27;;;18.97;;
8100;SDS011;4093;53.470;9.832;2023-03-03T01:33:31;40.30;;;18.87;;
8100;SDS011;4093;53.470;9.832;2023-03-03T01:35:59;35.83;;;19.37;;
8100;SDS011;4093;53.470;9.832;2023-03-03T01:38:29;41.33;;;19.80;;
8100;SDS011;4093;53.470;9.832;2023-03-03T01:40:57;45.20;;;20.73;;
8100;SDS011;4093;53.470;9.832;2023-03-03T01:43:26;40.63;;;20.77;;
8100;SDS011;4093;53.470;9.832;2023-03-03T01:48:55;43.27;;;22.27;;
8100;SDS011;4093;53.470;9.832;2023-03-03T01:51:28;45.90;;;22.13;;
8100;SDS011;4093;53.470;9.832;2023-03-03T01:54:00;48.50;;;21.47;;
8100;SDS011;4093;53.470;9.832;2023-03-03T01:56:29;106.10;;;26.20;;
8100;SDS011;4093;53.470;9.832;2023-03-03T01:58:58;48.13;;;21.33;;
8100;SDS011;4093;53.470;9.832;2023-03-03T02:01:30;45.73;;;22.33;;
8100;SDS011;4093;53.470;9.832;2023-03-03T02:04:00;42.77;;;22.27;;
8100;SDS011;4093;53.470;9.832;2023-03-03T02:06:28;42.67;;;22.73;;
8100;SDS011;4093;53.470;9.832;2023-03-03T02:09:03;44.37;;;22.77;;
8100;SDS011;4093;53.470;9.832;2023-03-03T02:11:37;44.60;;;22.03;;
8100;SDS011;4093;53.470;9.832;2023-03-03T02:14:06;42.47;;;21.60;;
8100;SDS011;4093;53.470;9.832;2023-03-03T02:16:34;39.83;;;21.57;;
8100;SDS011;4093;53.470;9.832;2023-03-03T02:19:02;44.87;;;21.40;;
8100;SDS011;4093;53.470;9.832;2023-03-03T02:21:31;53.80;;;23.77;;
8100;SDS011;4093;53.470;9.832;2023-03-03T02:24:00;53.53;;;23.27;;
8100;SDS011;4093;53.470;9.832;2023-03-03T02:26:38;40.33;;;20.67;;
8100;SDS011;4093;53.470;9.832;2023-03-03T02:29:07;39.50;;;21.20;;
8100;SDS011;4093;53.470;9.832;2023-03-03T02:31:36;41.30;;;22.03;;
8100;SDS011;4093;53.470;9.832;2023-03-03T02:34:04;39.10;;;21.13;;
8100;SDS011;4093;53.470;9.832;2023-03-03T02:36:33;41.53;;;23.03;;
8100;SDS011;4093;53.470;9.832;2023-03-03T02:39:03;44.03;;;23.30;;
8100;SDS011;4093;53.470;9.832;2023-03-03T02:41:35;40.27;;;20.80;;
8100;SDS011;4093;53.470;9.832;2023-03-03T02:44:10;42.40;;;21.30;;
8100;SDS011;4093;53.470;9.832;2023-03-03T02:46:41;47.27;;;24.07;;
8100;SDS011;4093;53.470;9.832;2023-03-03T02:49:11;40.23;;;21.13;;
8100;SDS011;4093;53.470;9.832;2023-03-03T02:51:41;40.10;;;21.30;;
8100;SDS011;4093;53.470;9.832;2023-03-03T02:54:10;41.70;;;22.23;;
8100;SDS011;4093;53.470;9.832;2023-03-03T02:56:41;56.23;;;22.70;;
8100;SDS011;4093;53.470;9.832;2023-03-03T02:59:09;45.40;;;22.07;;
8100;SDS011;4093;53.470;9.832;2023-03-03T03:01:37;62.00;;;24.20;;
8100;SDS011;4093;53.470;9.832;2023-03-03T03:04:06;57.70;;;23.03;;
8100;SDS011;4093;53.470;9.832;2023-03-03T03:06:35;62.73;;;23.17;;
8100;SDS011;4093;53.470;9.832;2023-03-03T03:09:03;44.67;;;22.30;;
8100;SDS011;4093;53.470;9.832;2023-03-03T03:11:33;58.03;;;24.57;;
8100;SDS011;4093;53.470;9.832;2023-03-03T03:14:03;69.13;;;25.47;;
8100;SDS011;4093;53.470;9.832;2023-03-03T03:16:32;44.60;;;23.97;;
8100;SDS011;4093;53.470;9.832;2023-03-03T03:19:00;52.17;;;25.33;;
8100;SDS011;4093;53.470;9.832;2023-03-03T03:21:29;57.10;;;25.60;;
8100;SDS011;4093;53.470;9.832;2023-03-03T03:23:57;57.67;;;24.30;;
8100;SDS011;4093;53.470;9.832;2023-03-03T03:26:25;68.60;;;25.10;;
8100;SDS011;4093;53.470;9.832;2023-03-03T03:28:53;57.30;;;25.37;;
8100;SDS011;4093;53.470;9.832;2023-03-03T03:31:23;59.03;;;24.87;;
8100;SDS011;4093;53.470;9.832;2023-03-03T03:33:50;49.87;;;24.47;;
8100;SDS011;4093;53.470;9.832;2023-03-03T03:36:18;71.17;;;25.97;;
8100;SDS011;4093;53.470;9.832;2023-03-03T03:38:46;48.10;;;23.53;;
8100;SDS011;4093;53.470;9.832;2023-03-03T03:41:13;53.93;;;23.60;;
8100;SDS011;4093;53.470;9.832;2023-03-03T03:43:41;59.37;;;24.67;;
8100;SDS011;4093;53.470;9.832;2023-03-03T03:46:09;64.17;;;24.10;;
8100;SDS011;4093;53.470;9.832;2023-03-03T03:48:38;52.37;;;23.90;;
8100;SDS011;4093;53.470;9.832;2023-03-03T03:51:06;65.23;;;24.00;;
8100;SDS011;4093;53.470;9.832;2023-03-03T03:53:34;72.90;;;25.50;;
8100;SDS011;4093;53.470;9.832;2023-03-03T03:56:01;44.43;;;22.93;;
8100;SDS011;4093;53.470;9.832;2023-03-03T03:58:29;121.43;;;28.37;;
8100;SDS011;4093;53.470;9.832;2023-03-03T04:01:00;50.37;;;24.30;;
8100;SDS011;4093;53.470;9.832;2023-03-03T04:03:29;52.10;;;26.63;;
8100;SDS011;4093;53.470;9.832;2023-03-03T04:05:58;39.47;;;22.43;;
8100;SDS011;4093;53.470;9.832;2023-03-03T04:08:26;44.50;;;23.33;;
8100;SDS011;4093;53.470;9.832;2023-03-03T04:10:54;47.50;;;23.80;;
8100;SDS011;4093;53.470;9.832;2023-03-03T04:13:21;52.07;;;24.87;;
8100;SDS011;4093;53.470;9.832;2023-03-03T04:15:49;45.63;;;22.23;;
8100;SDS011;4093;53.470;9.832;2023-03-03T04:18:17;52.87;;;24.40;;
8100;SDS011;4093;53.470;9.832;2023-03-03T04:20:45;40.97;;;21.97;;
8100;SDS011;4093;53.470;9.832;2023-03-03T04:23:14;46.03;;;21.73;;
8100;SDS011;4093;53.470;9.832;2023-03-03T04:25:42;52.70;;;24.10;;
8100;SDS011;4093;53.470;9.832;2023-03-03T04:28:09;55.87;;;26.30;;
8100;SDS011;4093;53.470;9.832;2023-03-03T04:30:37;57.47;;;25.50;;
8100;SDS011;4093;53.470;9.832;2023-03-03T04:33:05;73.33;;;25.10;;
8100;SDS011;4093;53.470;9.832;2023-03-03T04:35:33;54.47;;;24.93;;
8100;SDS011;4093;53.470;9.832;2023-03-03T04:38:01;71.97;;;27.47;;
8100;SDS011;4093;53.470;9.832;2023-03-03T04:40:31;63.77;;;25.67;;
8100;SDS011;4093;53.470;9.832;2023-03-03T04:42:59;56.83;;;25.63;;
8100;SDS011;4093;53.470;9.832;2023-03-03T04:45:27;52.73;;;24.73;;
8100;SDS011;4093;53.470;9.832;2023-03-03T04:47:54;60.87;;;28.37;;
8100;SDS011;4093;53.470;9.832;2023-03-03T04:50:22;48.67;;;24.27;;
8100;SDS011;4093;53.470;9.832;2023-03-03T04:52:50;58.67;;;26.30;;
8100;SDS011;4093;53.470;9.832;2023-03-03T04:55:17;53.53;;;25.97;;
8100;SDS011;4093;53.470;9.832;2023-03-03T04:57:46;54.70;;;25.37;;
8100;SDS011;4093;53.470;9.832;2023-03-03T05:00:14;52.63;;;25.83;;
8100;SDS011;4093;53.470;9.832;2023-03-03T05:02:43;60.07;;;26.97;;
8100;SDS011;4093;53.470;9.832;2023-03-03T05:05:10;52.60;;;26.60;;
8100;SDS011;4093;53.470;9.832;2023-03-03T05:07:38;58.50;;;25.97;;
8100;SDS011;4093;53.470;9.832;2023-03-03T05:10:07;50.90;;;25.70;;
8100;SDS011;4093;53.470;9.832;2023-03-03T05:12:36;58.03;;;25.37;;
8100;SDS011;4093;53.470;9.832;2023-03-03T05:15:06;66.03;;;26.33;;
8100;SDS011;4093;53.470;9.832;2023-03-03T05:17:34;55.67;;;24.60;;
8100;SDS011;4093;53.470;9.832;2023-03-03T05:20:03;66.80;;;26.40;;
8100;SDS011;4093;53.470;9.832;2023-03-03T05:22:33;52.03;;;25.03;;
8100;SDS011;4093;53.470;9.832;2023-03-03T05:25:01;63.93;;;26.80;;
8100;SDS011;4093;53.470;9.832;2023-03-03T05:27:29;50.10;;;23.73;;
8100;SDS011;4093;53.470;9.832;2023-03-03T05:29:56;55.03;;;24.67;;
8100;SDS011;4093;53.470;9.832;2023-03-03T05:32:25;55.43;;;25.00;;
8100;SDS011;4093;53.470;9.832;2023-03-03T05:34:53;54.77;;;26.27;;
8100;SDS011;4093;53.470;9.832;2023-03-03T05:37:21;61.33;;;28.47;;
8100;SDS011;4093;53.470;9.832;2023-03-03T05:39:49;55.93;;;29.10;;
8100;SDS011;4093;53.470;9.832;2023-03-03T05:42:17;54.53;;;25.67;;
8100;SDS011;4093;53.470;9.832;2023-03-03T05:44:45;51.07;;;25.30;;
8100;SDS011;4093;53.470;9.832;2023-03-03T05:47:13;53.57;;;26.80;;
8100;SDS011;4093;53.470;9.832;2023-03-03T05:49:42;53.07;;;24.43;;
8100;SDS011;4093;53.470;9.832;2023-03-03T05:52:09;45.60;;;23.57;;
8100;SDS011;4093;53.470;9.832;2023-03-03T05:54:37;46.10;;;22.43;;
8100;SDS011;4093;53.470;9.832;2023-03-03T05:57:05;49.47;;;23.90;;
8100;SDS011;4093;53.470;9.832;2023-03-03T05:59:32;51.07;;;24.10;;
8100;SDS011;4093;53.470;9.832;2023-03-03T06:02:00;52.80;;;23.90;;
8100;SDS011;4093;53.470;9.832;2023-03-03T06:04:28;40.33;;;20.93;;
8100;SDS011;4093;53.470;9.832;2023-03-03T06:06:57;44.00;;;22.90;;
8100;SDS011;4093;53.470;9.832;2023-03-03T06:09:25;48.07;;;24.93;;
8100;SDS011;4093;53.470;9.832;2023-03-03T06:11:53;43.37;;;22.17;;
8100;SDS011;4093;53.470;9.832;2023-03-03T06:14:21;50.27;;;23.60;;
8100;SDS011;4093;53.470;9.832;2023-03-03T06:16:52;66.97;;;24.80;;
8100;SDS011;4093;53.470;9.832;2023-03-03T06:19:20;45.27;;;23.60;;
8100;SDS011;4093;53.470;9.832;2023-03-03T06:21:47;58.37;;;25.63;;
8100;SDS011;4093;53.470;9.832;2023-03-03T06:24:16;47.20;;;23.10;;
8100;SDS011;4093;53.470;9.832;2023-03-03T06:26:44;46.33;;;23.30;;
8100;SDS011;4093;53.470;9.832;2023-03-03T06:29:12;50.93;;;24.53;;
8100;SDS011;4093;53.470;9.832;2023-03-03T06:31:41;47.93;;;24.57;;
8100;SDS011;4093;53.470;9.832;2023-03-03T06:34:09;44.63;;;23.27;;
8100;SDS011;4093;53.470;9.832;2023-03-03T06:36:36;44.63;;;22.20;;
8100;SDS011;4093;53.470;9.832;2023-03-03T06:39:04;52.60;;;24.00;;
8100;SDS011;4093;53.470;9.832;2023-03-03T06:41:34;50.83;;;23.73;;
8100;SDS011;4093;53.470;9.832;2023-03-03T06:44:02;47.37;;;23.63;;
8100;SDS011;4093;53.470;9.832;2023-03-03T06:46:29;47.73;;;22.90;;
8100;SDS011;4093;53.470;9.832;2023-03-03T06:48:57;46.57;;;23.67;;
8100;SDS011;4093;53.470;9.832;2023-03-03T06:51:26;41.27;;;20.27;;
8100;SDS011;4093;53.470;9.832;2023-03-03T06:53:59;45.87;;;21.77;;
8100;SDS011;4093;53.470;9.832;2023-03-03T06:56:29;38.40;;;20.50;;
8100;SDS011;4093;53.470;9.832;2023-03-03T06:59:00;36.07;;;19.60;;
8100;SDS011;4093;53.470;9.832;2023-03-03T07:01:33;41.27;;;20.07;;
8100;SDS011;4093;53.470;9.832;2023-03-03T07:04:06;43.93;;;21.83;;
8100;SDS011;4093;53.470;9.832;2023-03-03T07:06:40;43.97;;;21.53;;
8100;SDS011;4093;53.470;9.832;2023-03-03T07:09:09;43.90;;;22.17;;
8100;SDS011;4093;53.470;9.832;2023-03-03T07:11:45;37.83;;;19.40;;
8100;SDS011;4093;53.470;9.832;2023-03-03T07:14:15;45.10;;;21.90;;
8100;SDS011;4093;53.470;9.832;2023-03-03T07:16:44;41.47;;;18.57;;
8100;SDS011;4093;53.470;9.832;2023-03-03T07:19:15;55.37;;;22.17;;
8100;SDS011;4093;53.470;9.832;2023-03-03T07:21:45;45.77;;;21.93;;
8100;SDS011;4093;53.470;9.832;2023-03-03T07:24:18;44.23;;;22.60;;
8100;SDS011;4093;53.470;9.832;2023-03-03T07:26:53;44.30;;;21.53;;
8100;SDS011;4093;53.470;9.832;2023-03-03T07:29:28;46.83;;;22.47;;
8100;SDS011;4093;53.470;9.832;2023-03-03T07:31:57;38.20;;;20.53;;
8100;SDS011;4093;53.470;9.832;2023-03-03T07:34:26;44.97;;;23.10;;
8100;SDS011;4093;53.470;9.832;2023-03-03T07:37:00;45.67;;;22.57;;
8100;SDS011;4093;53.470;9.832;2023-03-03T07:39:33;44.93;;;23.20;;
8100;SDS011;4093;53.470;9.832;2023-03-03T07:42:11;47.40;;;23.03;;
8100;SDS011;4093;53.470;9.832;2023-03-03T07:44:51;47.33;;;23.80;;
8100;SDS011;4093;53.470;9.832;2023-03-03T07:47:21;48.07;;;24.03;;
8100;SDS011;4093;53.470;9.832;2023-03-03T07:49:51;42.73;;;21.97;;
8100;SDS011;4093;53.470;9.832;2023-03-03T07:52:24;49.03;;;23.60;;
8100;SDS011;4093;53.470;9.832;2023-03-03T07:54:54;54.60;;;25.90;;
8100;SDS011;4093;53.470;9.832;2023-03-03T07:57:25;60.90;;;26.10;;
8100;SDS011;4093;53.470;9.832;2023-03-03T07:59:57;58.97;;;26.60;;
8100;SDS011;4093;53.470;9.832;2023-03-03T08:02:36;55.87;;;26.83;;
8100;SDS011;4093;53.470;9.832;2023-03-03T08:08:13;55.07;;;25.13;;
8100;SDS011;4093;53.470;9.832;2023-03-03T08:10:48;42.40;;;22.60;;
8100;SDS011;4093;53.470;9.832;2023-03-03T08:13:18;44.87;;;20.97;;
8100;SDS011;4093;53.470;9.832;2023-03-03T08:15:49;46.83;;;22.10;;
8100;SDS011;4093;53.470;9.832;2023-03-03T08:18:21;44.93;;;21.63;;
8100;SDS011;4093;53.470;9.832;2023-03-03T08:20:51;41.63;;;22.10;;
8100;SDS011;4093;53.470;9.832;2023-03-03T08:23:21;43.67;;;21.50;;
8100;SDS011;4093;53.470;9.832;2023-03-03T08:25:49;42.67;;;21.63;;
8100;SDS011;4093;53.470;9.832;2023-03-03T08:28:18;55.37;;;21.83;;
8100;SDS011;4093;53.470;9.832;2023-03-03T08:30:49;39.43;;;20.57;;
8100;SDS011;4093;53.470;9.832;2023-03-03T08:33:25;35.20;;;19.03;;
8100;SDS011;4093;53.470;9.832;2023-03-03T08:35:53;31.87;;;18.50;;
8100;SDS011;4093;53.470;9.832;2023-03-03T08:38:21;37.80;;;18.70;;
8100;SDS011;4093;53.470;9.832;2023-03-03T08:40:49;33.10;;;18.13;;
8100;SDS011;4093;53.470;9.832;2023-03-03T08:43:16;39.17;;;17.73;;
8100;SDS011;4093;53.470;9.832;2023-03-03T08:45:47;33.13;;;17.50;;
8100;SDS011;4093;53.470;9.832;2023-03-03T08:48:18;35.77;;;18.83;;
8100;SDS011;4093;53.470;9.832;2023-03-03T08:50:46;33.40;;;17.97;;
8100;SDS011;4093;53.470;9.832;2023-03-03T08:53:14;32.77;;;16.37;;
8100;SDS011;4093;53.470;9.832;2023-03-03T08:55:42;32.90;;;17.97;;
8100;SDS011;4093;53.470;9.832;2023-03-03T08:58:10;32.20;;;17.03;;
8100;SDS011;4093;53.470;9.832;2023-03-03T09:00:38;33.33;;;16.73;;
8100;SDS011;4093;53.470;9.832;2023-03-03T09:03:07;31.67;;;16.73;;
8100;SDS011;4093;53.470;9.832;2023-03-03T09:05:37;27.57;;;15.43;;
8100;SDS011;4093;53.470;9.832;2023-03-03T09:08:06;30.00;;;17.47;;
8100;SDS011;4093;53.470;9.832;2023-03-03T09:10:34;30.23;;;15.73;;
8100;SDS011;4093;53.470;9.832;2023-03-03T09:13:03;28.23;;;15.90;;
8100;SDS011;4093;53.470;9.832;2023-03-03T09:15:39;27.50;;;15.20;;
8100;SDS011;4093;53.470;9.832;2023-03-03T09:18:12;23.97;;;14.33;;
8100;SDS011;4093;53.470;9.832;2023-03-03T09:20:42;23.47;;;13.93;;
8100;SDS011;4093;53.470;9.832;2023-03-03T09:26:12;24.80;;;14.50;;
8100;SDS011;4093;53.470;9.832;2023-03-03T09:28:48;23.07;;;14.03;;
8100;SDS011;4093;53.470;9.832;2023-03-03T09:31:21;22.63;;;13.43;;
8100;SDS011;4093;53.470;9.832;2023-03-03T09:33:53;21.40;;;12.33;;
8100;SDS011;4093;53.470;9.832;2023-03-03T09:36:25;23.07;;;13.47;;
8100;SDS011;4093;53.470;9.832;2023-03-03T09:38:54;19.03;;;13.00;;
8100;SDS011;4093;53.470;9.832;2023-03-03T09:41:29;24.53;;;13.23;;
8100;SDS011;4093;53.470;9.832;2023-03-03T09:44:15;19.83;;;12.63;;
8100;SDS011;4093;53.470;9.832;2023-03-03T09:46:56;20.63;;;13.00;;
8100;SDS011;4093;53.470;9.832;2023-03-03T09:49:38;21.53;;;13.57;;
8100;SDS011;4093;53.470;9.832;2023-03-03T09:52:25;20.40;;;12.80;;
8100;SDS011;4093;53.470;9.832;2023-03-03T09:55:16;19.20;;;11.77;;
8100;SDS011;4093;53.470;9.832;2023-03-03T09:58:00;20.47;;;13.17;;
8100;SDS011;4093;53.470;9.832;2023-03-03T10:00:40;17.03;;;11.30;;
8100;SDS011;4093;53.470;9.832;2023-03-03T10:06:27;17.50;;;12.40;;
8100;SDS011;4093;53.470;9.832;2023-03-03T10:09:17;17.87;;;11.80;;
8100;SDS011;4093;53.470;9.832;2023-03-03T10:12:06;18.47;;;12.57;;
8100;SDS011;4093;53.470;9.832;2023-03-03T10:14:48;16.80;;;11.40;;
8100;SDS011;4093;53.470;9.832;2023-03-03T10:17:30;18.40;;;12.07;;
8100;SDS011;4093;53.470;9.832;2023-03-03T10:20:11;19.50;;;11.57;;
8100;SDS011;4093;53.470;9.832;2023-03-03T10:22:53;39.33;;;24.70;;
8100;SDS011;4093;53.470;9.832;2023-03-03T10:25:27;17.17;;;11.20;;
8100;SDS011;4093;53.470;9.832;2023-03-03T10:28:06;15.67;;;10.43;;
8100;SDS011;4093;53.470;9.832;2023-03-03T10:30:58;14.27;;;10.10;;
8100;SDS011;4093;53.470;9.832;2023-03-03T10:33:44;17.43;;;10.63;;
8100;SDS011;4093;53.470;9.832;2023-03-03T10:39:16;18.00;;;9.57;;
8100;SDS011;4093;53.470;9.832;2023-03-03T10:42:09;17.47;;;9.60;;
8100;SDS011;4093;53.470;9.832;2023-03-03T10:45:04;14.80;;;9.10;;
8100;SDS011;4093;53.470;9.832;2023-03-03T10:47:45;17.10;;;8.60;;
8100;SDS011;4093;53.470;9.832;2023-03-03T10:50:22;17.23;;;9.57;;
8100;SDS011;4093;53.470;9.832;2023-03-03T10:52:55;16.77;;;9.43;;
8100;SDS011;4093;53.470;9.832;2023-03-03T10:55:39;17.40;;;9.43;;
8100;SDS011;4093;53.470;9.832;2023-03-03T10:58:27;18.47;;;9.60;;
8100;SDS011;4093;53.470;9.832;2023-03-03T11:01:11;17.97;;;10.37;;
8100;SDS011;4093;53.470;9.832;2023-03-03T11:03:56;16.63;;;10.03;;
8100;SDS011;4093;53.470;9.832;2023-03-03T11:06:51;19.53;;;10.67;;
8100;SDS011;4093;53.470;9.832;2023-03-03T11:09:28;21.87;;;11.70;;
8100;SDS011;4093;53.470;9.832;2023-03-03T11:12:10;27.93;;;14.60;;
8100;SDS011;4093;53.470;9.832;2023-03-03T11:14:52;22.10;;;12.07;;
8100;SDS011;4093;53.470;9.832;2023-03-03T11:17:34;19.57;;;11.07;;
8100;SDS011;4093;53.470;9.832;2023-03-03T11:20:18;19.90;;;12.07;;
8100;SDS011;4093;53.470;9.832;2023-03-03T11:22:56;20.50;;;11.30;;
8100;SDS011;4093;53.470;9.832;2023-03-03T11:25:35;21.30;;;11.93;;
8100;SDS011;4093;53.470;9.832;2023-03-03T11:28:16;23.33;;;11.20;;
8100;SDS011;4093;53.470;9.832;2023-03-03T11:31:10;20.60;;;11.70;;
8100;SDS011;4093;53.470;9.832;2023-03-03T11:33:46;19.87;;;11.63;;
8100;SDS011;4093;53.470;9.832;2023-03-03T11:36:25;23.80;;;13.03;;
8100;SDS011;4093;53.470;9.832;2023-03-03T11:39:01;22.97;;;12.07;;
8100;SDS011;4093;53.470;9.832;2023-03-03T11:41:31;24.80;;;11.63;;
8100;SDS011;4093;53.470;9.832;2023-03-03T11:44:07;24.90;;;12.53;;
8100;SDS011;4093;53.470;9.832;2023-03-03T11:46:44;24.27;;;12.93;;
8100;SDS011;4093;53.470;9.832;2023-03-03T11:49:17;21.27;;;12.67;;
8100;SDS011;4093;53.470;9.832;2023-03-03T11:51:52;23.77;;;12.77;;
8100;SDS011;4093;53.470;9.832;2023-03-03T11:54:27;23.30;;;12.83;;
8100;SDS011;4093;53.470;9.832;2023-03-03T11:57:07;21.80;;;12.00;;
8100;SDS011;4093;53.470;9.832;2023-03-03T11:59:46;23.60;;;13.47;;
8100;SDS011;4093;53.470;9.832;2023-03-03T12:02:30;23.80;;;12.80;;
8100;SDS011;4093;53.470;9.832;2023-03-03T12:05:10;24.63;;;13.10;;
8100;SDS011;4093;53.470;9.832;2023-03-03T12:07:54;18.20;;;11.33;;
8100;SDS011;4093;53.470;9.832;2023-03-03T12:10:31;21.63;;;13.07;;
8100;SDS011;4093;53.470;9.832;2023-03-03T12:13:09;25.30;;;12.57;;
8100;SDS011;4093;53.470;9.832;2023-03-03T12:15:45;20.50;;;10.17;;
8100;SDS011;4093;53.470;9.832;2023-03-03T12:21:16;14.97;;;7.13;;
8100;SDS011;4093;53.470;9.832;2023-03-03T12:23:57;11.03;;;6.97;;
8100;SDS011;4093;53.470;9.832;2023-03-03T12:26:35;16.37;;;8.17;;
8100;SDS011;4093;53.470;9.832;2023-03-03T12:29:18;10.53;;;5.63;;
8100;SDS011;4093;53.470;9.832;2023-03-03T12:31:55;13.23;;;5.67;;
8100;SDS011;4093;53.470;9.832;2023-03-03T12:34:33;10.93;;;6.03;;
8100;SDS011;4093;53.470;9.832;2023-03-03T12:37:14;8.97;;;5.97;;
8100;SDS011;4093;53.470;9.832;2023-03-03T12:40:06;7.83;;;5.37;;
8100;SDS011;4093;53.470;9.832;2023-03-03T12:42:38;10.33;;;5.53;;
8100;SDS011;4093;53.470;9.832;2023-03-03T12:45:17;11.30;;;5.57;;
8100;SDS011;4093;53.470;9.832;2023-03-03T12:47:58;8.60;;;4.73;;
8100;SDS011;4093;53.470;9.832;2023-03-03T12:50:32;8.90;;;4.70;;
8100;SDS011;4093;53.470;9.832;2023-03-03T12:53:11;9.57;;;4.73;;
8100;SDS011;4093;53.470;9.832;2023-03-03T12:55:51;10.03;;;5.30;;
8100;SDS011;4093;53.470;9.832;2023-03-03T12:58:24;9.60;;;5.13;;
8100;SDS011;4093;53.470;9.832;2023-03-03T13:01:07;7.97;;;4.27;;
8100;SDS011;4093;53.470;9.832;2023-03-03T13:03:51;8.47;;;4.67;;
8100;SDS011;4093;53.470;9.832;2023-03-03T13:06:31;8.03;;;4.67;;
8100;SDS011;4093;53.470;9.832;2023-03-03T13:09:10;9.27;;;4.73;;
8100;SDS011;4093;53.470;9.832;2023-03-03T13:11:50;6.83;;;4.50;;
8100;SDS011;4093;53.470;9.832;2023-03-03T13:14:43;7.07;;;4.50;;
8100;SDS011;4093;53.470;9.832;2023-03-03T13:17:17;8.13;;;4.30;;
8100;SDS011;4093;53.470;9.832;2023-03-03T13:19:52;9.60;;;5.23;;
8100;SDS011;4093;53.470;9.832;2023-03-03T13:22:30;13.67;;;5.47;;
8100;SDS011;4093;53.470;9.832;2023-03-03T13:25:05;8.07;;;5.30;;
8100;SDS011;4093;53.470;9.832;2023-03-03T13:27:45;6.97;;;4.50;;
8100;SDS011;4093;53.470;9.832;2023-03-03T13:30:18;7.53;;;4.40;;
8100;SDS011;4093;53.470;9.832;2023-03-03T13:32:50;5.37;;;3.60;;
8100;SDS011;4093;53.470;9.832;2023-03-03T13:35:28;6.23;;;3.93;;
8100;SDS011;4093;53.470;9.832;2023-03-03T13:38:04;6.13;;;3.47;;
8100;SDS011;4093;53.470;9.832;2023-03-03T13:40:38;4.93;;;2.90;;
8100;SDS011;4093;53.470;9.832;2023-03-03T13:43:11;5.50;;;3.57;;
8100;SDS011;4093;53.470;9.832;2023-03-03T13:45:47;6.80;;;3.00;;
8100;SDS011;4093;53.470;9.832;2023-03-03T13:48:36;4.57;;;3.37;;
8100;SDS011;4093;53.470;9.832;2023-03-03T13:51:18;4.50;;;2.63;;
8100;SDS011;4093;53.470;9.832;2023-03-03T13:54:00;4.33;;;3.13;;
8100;SDS011;4093;53.470;9.832;2023-03-03T13:56:42;5.80;;;3.17;;
8100;SDS011;4093;53.470;9.832;2023-03-03T13:59:26;6.17;;;3.40;;
8100;SDS011;4093;53.470;9.832;2023-03-03T14:02:01;3.87;;;3.47;;
8100;SDS011;4093;53.470;9.832;2023-03-03T14:04:48;6.70;;;4.07;;
8100;SDS011;4093;53.470;9.832;2023-03-03T14:07:22;6.70;;;3.43;;
8100;SDS011;4093;53.470;9.832;2023-03-03T14:09:59;6.83;;;3.03;;
8100;SDS011;4093;53.470;9.832;2023-03-03T14:12:37;5.23;;;2.90;;
8100;SDS011;4093;53.470;9.832;2023-03-03T14:15:15;5.67;;;2.40;;
8100;SDS011;4093;53.470;9.832;2023-03-03T14:17:54;4.23;;;2.30;;
8100;SDS011;4093;53.470;9.832;2023-03-03T14:20:32;8.40;;;2.40;;
8100;SDS011;4093;53.470;9.832;2023-03-03T14:23:07;3.40;;;2.30;;
8100;SDS011;4093;53.470;9.832;2023-03-03T14:28:38;3.40;;;2.27;;
8100;SDS011;4093;53.470;9.832;2023-03-03T14:31:14;3.50;;;2.30;;
8100;SDS011;4093;53.470;9.832;2023-03-03T14:33:44;5.93;;;2.20;;
8100;SDS011;4093;53.470;9.832;2023-03-03T14:36:25;6.63;;;2.10;;
8100;SDS011;4093;53.470;9.832;2023-03-03T14:38:57;2.23;;;2.00;;
8100;SDS011;4093;53.470;9.832;2023-03-03T14:41:35;2.50;;;2.10;;
8100;SDS011;4093;53.470;9.832;2023-03-03T14:44:20;5.57;;;2.00;;
8100;SDS011;4093;53.470;9.832;2023-03-03T14:47:02;4.47;;;2.13;;
8100;SDS011;4093;53.470;9.832;2023-03-03T14:49:39;3.77;;;2.20;;
8100;SDS011;4093;53.470;9.832;2023-03-03T14:52:10;5.80;;;2.40;;
8100;SDS011;4093;53.470;9.832;2023-03-03T14:54:48;3.10;;;2.00;;
8100;SDS011;4093;53.470;9.832;2023-03-03T14:57:17;5.90;;;2.30;;
8100;SDS011;4093;53.470;9.832;2023-03-03T14:59:56;2.63;;;1.93;;
8100;SDS011;4093;53.470;9.832;2023-03-03T15:02:34;4.83;;;2.23;;
8100;SDS011;4093;53.470;9.832;2023-03-03T15:05:12;6.93;;;2.10;;
8100;SDS011;4093;53.470;9.832;2023-03-03T15:07:45;5.63;;;2.80;;
8100;SDS011;4093;53.470;9.832;2023-03-03T15:10:26;6.07;;;2.53;;
8100;SDS011;4093;53.470;9.832;2023-03-03T15:12:55;4.57;;;2.37;;
8100;SDS011;4093;53.470;9.832;2023-03-03T15:15:23;6.13;;;2.60;;
8100;SDS011;4093;53.470;9.832;2023-03-03T15:17:57;5.47;;;2.03;;
8100;SDS011;4093;53.470;9.832;2023-03-03T15:20:30;8.87;;;2.60;;
8100;SDS011;4093;53.470;9.832;2023-03-03T15:26:05;6.30;;;2.30;;
8100;SDS011;4093;53.470;9.832;2023-03-03T15:28:44;2.87;;;2.37;;
8100;SDS011;4093;53.470;9.832;2023-03-03T15:31:27;5.97;;;2.30;;
8100;SDS011;4093;53.470;9.832;2023-03-03T15:34:05;4.00;;;2.47;;
8100;SDS011;4093;53.470;9.832;2023-03-03T15:36:56;6.53;;;2.67;;
8100;SDS011;4093;53.470;9.832;2023-03-03T15:39:30;6.67;;;2.47;;
8100;SDS011;4093;53.470;9.832;2023-03-03T15:42:10;6.23;;;2.57;;
8100;SDS011;4093;53.470;9.832;2023-03-03T15:44:46;5.57;;;2.60;;
8100;SDS011;4093;53.470;9.832;2023-03-03T15:50:27;4.13;;;2.30;;
8100;SDS011;4093;53.470;9.832;2023-03-03T15:53:06;7.00;;;2.83;;
8100;SDS011;4093;53.470;9.832;2023-03-03T15:55:53;7.73;;;3.20;;